Time;durP1;ratioP1;P1;durP2;ratioP2;P2;SDS_P1;SDS_P2;PMS_P1;PMS_P2;Temp;Humidity;BMP_temperature;BMP_pressure;BME280_temperature;BME280_humidity;BME280_pressure;Samples;Min_cycle;Max_cycle;Signal;HPM_P1;HPM_P2
2023/10/02 00:01:24;;;;;;;0.00;0.00;;;17.90;97.30;;;;;;5013365;28;20033;-84
2023/10/02 00:04:16;;;;;;;0.00;0.00;;;17.80;97.40;;;;;;5009891;28;20057;-84
2023/10/02 00:06:37;;;;;;;0.00;0.00;;;17.60;97.90;;;;;;5013892;28;20056;-84
2023/10/02 00:09:04;;;;;;;0.00;0.00;;;17.70;98.00;;;;;;5023866;28;20072;-84
2023/10/02 00:11:39;;;;;;;0.10;0.10;;;17.60;98.00;;;;;;5024651;28;20041;-83
2023/10/02 00:14:26;;;;;;;0.00;0.00;;;17.70;97.90;;;;;;5016053;28;20049;-83
2023/10/02 00:17:08;;;;;;;0.00;0.00;;;17.60;98.00;;;;;;5015531;28;20025;-84
2023/10/02 00:19:49;;;;;;;0.00;0.00;;;17.60;98.10;;;;;;5016928;28;20068;-84
2023/10/02 00:22:34;;;;;;;0.00;0.00;;;17.60;98.20;;;;;;5012664;28;20370;-85
2023/10/02 00:25:07;;;;;;;0.00;0.00;;;17.60;98.30;;;;;;5020849;28;20060;-85
2023/10/02 00:27:37;;;;;;;0.00;0.00;;;17.50;98.30;;;;;;5022324;28;20035;-85
2023/10/02 00:30:13;;;;;;;0.00;0.00;;;17.50;98.20;;;;;;5022368;28;20037;-85
2023/10/02 00:32:41;;;;;;;0.00;0.00;;;17.50;98.20;;;;;;5018477;28;20022;-85
2023/10/02 00:35:11;;;;;;;0.00;0.00;;;17.50;98.30;;;;;;5020885;28;20148;-84
2023/10/02 00:37:44;;;;;;;0.00;0.00;;;17.50;98.30;;;;;;5020477;28;20125;-84
2023/10/02 00:40:26;;;;;;;0.00;0.00;;;17.40;98.20;;;;;;5023815;28;20021;-84
2023/10/02 00:43:33;;;;;;;0.00;0.00;;;17.40;98.50;;;;;;5015874;28;20022;-85
2023/10/02 00:45:49;;;;;;;0.00;0.00;;;17.30;98.60;;;;;;5014210;28;20041;-84
2023/10/02 00:48:25;;;;;;;0.00;0.00;;;17.30;98.70;;;;;;5019623;28;20036;-84
2023/10/02 00:50:59;;;;;;;0.00;0.00;;;17.30;98.70;;;;;;5017421;28;20042;-84
2023/10/02 00:53:38;;;;;;;0.00;0.00;;;17.40;98.60;;;;;;5022785;28;20033;-84
2023/10/02 00:56:19;;;;;;;0.00;0.00;;;17.40;98.40;;;;;;5010756;28;20128;-84
2023/10/02 00:59:00;;;;;;;0.00;0.00;;;17.30;98.40;;;;;;5023235;28;20033;-84
2023/10/02 01:01:31;;;;;;;0.10;0.10;;;17.30;98.30;;;;;;5011862;28;20045;-83
2023/10/02 01:04:09;;;;;;;0.00;0.00;;;17.20;98.50;;;;;;5016663;28;20397;-83
2023/10/02 01:06:54;;;;;;;0.00;0.00;;;17.20;98.30;;;;;;5016097;28;20033;-84
2023/10/02 01:09:26;;;;;;;0.00;0.00;;;17.20;98.40;;;;;;5030190;28;20453;-84
2023/10/02 01:11:53;;;;;;;0.00;0.00;;;17.20;98.20;;;;;;5018168;28;20591;-83
2023/10/02 01:14:40;;;;;;;;;;;17.10;98.20;;;;;;5016877;28;20116;-84
2023/10/02 01:17:07;;;;;;;0.00;0.00;;;17.10;98.20;;;;;;5022140;28;20652;-84
2023/10/02 01:19:52;;;;;;;0.00;0.00;;;17.20;97.90;;;;;;5015864;28;20030;-85
2023/10/02 01:22:27;;;;;;;0.00;0.00;;;17.20;97.90;;;;;;5019221;28;20065;-84
2023/10/02 01:25:14;;;;;;;0.00;0.00;;;17.10;97.70;;;;;;5018867;28;20702;-83
2023/10/02 01:27:47;;;;;;;0.00;0.00;;;17.10;97.90;;;;;;5017138;28;20104;-83
2023/10/02 01:30:18;;;;;;;0.00;0.00;;;17.00;97.80;;;;;;5014576;28;20575;-83
2023/10/02 01:33:06;;;;;;;0.00;0.00;;;17.00;98.10;;;;;;5019534;28;20095;-83
2023/10/02 01:35:33;;;;;;;0.00;0.00;;;16.90;98.10;;;;;;5020764;28;20025;-83
2023/10/02 01:37:59;;;;;;;0.20;0.20;;;16.90;98.00;;;;;;5012215;28;20025;-83
2023/10/02 01:40:34;;;;;;;0.00;0.00;;;16.90;97.90;;;;;;5018843;28;20519;-84
2023/10/02 01:43:12;;;;;;;0.00;0.00;;;16.90;98.20;;;;;;5012827;28;20280;-84
2023/10/02 01:45:43;;;;;;;0.00;0.00;;;16.80;98.40;;;;;;5019585;28;20044;-85
2023/10/02 01:48:36;;;;;;;0.00;0.00;;;16.70;98.70;;;;;;5021867;28;20029;-85
2023/10/02 01:51:21;;;;;;;0.20;0.20;;;16.70;98.50;;;;;;5012707;28;20040;-83
2023/10/02 01:53:55;;;;;;;0.10;0.10;;;16.70;98.70;;;;;;5021619;28;20025;-83
2023/10/02 01:56:29;;;;;;;0.00;0.00;;;16.70;98.50;;;;;;5017217;28;20025;-83
2023/10/02 01:59:19;;;;;;;0.00;0.00;;;16.60;98.60;;;;;;5015887;28;20029;-83
2023/10/02 02:01:56;;;;;;;0.30;0.30;;;16.60;98.70;;;;;;5016992;28;20041;-85
2023/10/02 02:04:32;;;;;;;0.00;0.00;;;16.60;98.70;;;;;;5011206;28;20055;-84
2023/10/02 02:07:00;;;;;;;0.00;0.00;;;16.50;98.90;;;;;;5020160;28;20037;-84
2023/10/02 02:09:31;;;;;;;0.17;0.17;;;16.50;98.90;;;;;;5017005;28;20072;-84
2023/10/02 02:12:05;;;;;;;0.00;0.00;;;16.40;99.00;;;;;;5016199;28;20496;-85
2023/10/02 02:14:51;;;;;;;0.00;0.00;;;16.40;99.10;;;;;;5019347;28;20188;-85
2023/10/02 02:17:20;;;;;;;0.10;0.10;;;16.40;99.30;;;;;;5017143;28;20729;-83
2023/10/02 02:19:49;;;;;;;0.00;0.00;;;16.40;99.20;;;;;;5020104;28;20037;-83
2023/10/02 02:22:23;;;;;;;0.00;0.00;;;16.30;99.40;;;;;;5014751;28;20084;-84
2023/10/02 02:24:51;;;;;;;0.00;0.00;;;16.30;99.50;;;;;;5015936;28;20049;-83
2023/10/02 02:27:19;;;;;;;0.00;0.00;;;16.20;99.50;;;;;;5014601;28;20025;-84
2023/10/02 02:29:54;;;;;;;0.00;0.00;;;16.20;99.50;;;;;;5014506;28;20025;-85
2023/10/02 02:32:36;;;;;;;0.00;0.00;;;16.20;99.60;;;;;;5021106;28;20039;-85
2023/10/02 02:35:06;;;;;;;0.00;0.00;;;16.10;99.80;;;;;;5016766;28;20033;-85
2023/10/02 02:37:33;;;;;;;0.43;0.43;;;16.10;99.90;;;;;;5018557;28;20568;-83
2023/10/02 02:40:21;;;;;;;;;;;16.10;99.90;;;;;;5015942;28;20053;-83
2023/10/02 02:42:45;;;;;;;0.00;0.00;;;16.10;99.90;;;;;;5018248;28;19936;-83
2023/10/02 02:45:31;;;;;;;0.10;0.10;;;16.10;99.90;;;;;;5020138;28;20080;-83
2023/10/02 02:48:04;;;;;;;0.00;0.00;;;16.00;99.90;;;;;;5015183;28;20041;-83
2023/10/02 02:50:40;;;;;;;0.00;0.00;;;16.00;99.90;;;;;;5022468;28;20036;-84
2023/10/02 02:53:23;;;;;;;0.10;0.10;;;15.90;99.90;;;;;;5009119;28;20030;-83
2023/10/02 02:56:18;;;;;;;0.00;0.00;;;15.90;99.90;;;;;;5011283;28;20041;-83
2023/10/02 02:58:50;;;;;;;0.00;0.00;;;15.90;99.90;;;;;;5012041;28;20048;-82
2023/10/02 03:01:22;;;;;;;0.00;0.00;;;15.80;99.90;;;;;;5022035;28;20501;-84
2023/10/02 03:03:52;;;;;;;0.00;0.00;;;15.90;99.90;;;;;;5020870;28;20049;-84
2023/10/02 03:06:22;;;;;;;1.00;1.00;;;16.00;99.90;;;;;;5007989;28;20288;-84
2023/10/02 03:08:53;;;;;;;0.00;0.00;;;16.00;99.90;;;;;;5017123;28;20049;-84
2023/10/02 03:11:28;;;;;;;0.00;0.00;;;16.00;99.90;;;;;;5017663;28;20034;-86
2023/10/02 03:14:11;;;;;;;0.00;0.00;;;15.90;99.90;;;;;;5012499;28;20063;-85
2023/10/02 03:16:38;;;;;;;0.00;0.00;;;15.90;99.90;;;;;;5015487;28;20037;-84
2023/10/02 03:19:07;;;;;;;0.00;0.00;;;15.90;99.90;;;;;;5017337;28;20042;-85
2023/10/02 03:21:37;;;;;;;0.50;0.50;;;15.90;99.90;;;;;;5018100;28;20064;-85
2023/10/02 03:24:04;;;;;;;0.00;0.00;;;15.90;99.90;;;;;;5024244;28;20033;-84
2023/10/02 03:29:04;;;;;;;0.00;0.00;;;15.80;99.90;;;;;;5025979;28;20144;-83
2023/10/02 03:31:35;;;;;;;0.20;0.20;;;15.80;99.90;;;;;;5021648;28;20030;-83
2023/10/02 03:36:50;;;;;;;0.00;0.00;;;15.70;99.90;;;;;;5020448;28;20037;-83
2023/10/02 03:39:23;;;;;;;0.00;0.00;;;15.70;99.90;;;;;;5022493;28;20029;-84
2023/10/02 03:41:50;;;;;;;0.00;0.00;;;15.80;99.90;;;;;;5020242;28;20037;-84
2023/10/02 03:44:16;;;;;;;0.00;0.00;;;15.70;99.90;;;;;;5022364;28;20029;-85
2023/10/02 03:46:42;;;;;;;0.00;0.00;;;15.70;99.90;;;;;;5023739;28;20445;-84
2023/10/02 03:49:08;;;;;;;0.00;0.00;;;15.70;99.90;;;;;;5017806;28;20025;-83
2023/10/02 03:51:40;;;;;;;;;;;15.70;99.90;;;;;;5013429;28;20034;-83
2023/10/02 03:54:17;;;;;;;0.00;0.00;;;15.70;99.90;;;;;;5018028;28;19920;-83
2023/10/02 03:56:50;;;;;;;0.00;0.00;;;15.60;99.90;;;;;;5019310;28;20551;-84
2023/10/02 03:59:21;;;;;;;0.00;0.00;;;15.60;99.90;;;;;;5024655;28;20026;-84
2023/10/02 04:01:49;;;;;;;0.00;0.00;;;15.60;99.90;;;;;;5023140;28;20543;-84
2023/10/02 04:06:44;;;;;;;0.30;0.30;;;15.60;99.90;;;;;;5020763;28;20040;-82
2023/10/02 04:09:18;;;;;;;0.00;0.00;;;15.60;99.90;;;;;;5016077;28;20116;-84
2023/10/02 04:11:45;;;;;;;0.00;0.00;;;15.60;99.90;;;;;;5023245;28;20124;-83
2023/10/02 04:14:17;;;;;;;0.00;0.00;;;15.50;99.90;;;;;;5021581;28;20034;-83
2023/10/02 04:16:59;;;;;;;0.00;0.00;;;15.50;99.90;;;;;;5023797;28;20037;-83
2023/10/02 04:19:26;;;;;;;0.00;0.00;;;15.50;99.90;;;;;;5022806;28;20582;-84
2023/10/02 04:21:53;;;;;;;0.93;0.82;;;15.50;99.90;;;;;;5023830;28;20033;-82
2023/10/02 04:24:23;;;;;;;0.00;0.00;;;15.60;99.90;;;;;;5029723;28;20059;-83
2023/10/02 04:26:54;;;;;;;0.00;0.00;;;15.70;99.90;;;;;;5023947;28;20030;-82
2023/10/02 04:29:26;;;;;;;0.10;0.10;;;15.60;99.90;;;;;;5028695;28;20100;-82
2023/10/02 04:34:56;;;;;;;0.00;0.00;;;15.60;99.90;;;;;;5016814;28;20046;-82
2023/10/02 04:37:22;;;;;;;0.00;0.00;;;15.50;99.90;;;;;;5024710;28;20056;-82
2023/10/02 04:42:57;;;;;;;0.00;0.00;;;15.50;99.90;;;;;;5022033;28;20033;-81
2023/10/02 04:45:25;;;;;;;0.00;0.00;;;15.50;99.90;;;;;;5020878;28;20128;-85
2023/10/02 04:47:55;;;;;;;0.15;0.15;;;15.50;99.90;;;;;;5023798;28;20025;-85
2023/10/02 04:52:57;;;;;;;0.00;0.00;;;15.40;99.90;;;;;;5022909;28;20136;-85
2023/10/02 04:55:31;;;;;;;0.00;0.00;;;15.30;99.90;;;;;;5021941;28;20036;-84
2023/10/02 04:58:08;;;;;;;0.00;0.00;;;15.20;99.90;;;;;;5022195;28;20039;-84
2023/10/02 05:00:34;;;;;;;0.00;0.00;;;15.30;99.90;;;;;;5022515;28;20044;-83
2023/10/02 05:05:49;;;;;;;0.00;0.00;;;15.30;99.90;;;;;;5022936;28;20114;-84
2023/10/02 05:08:21;;;;;;;0.00;0.00;;;15.30;99.90;;;;;;5022562;28;20033;-85
2023/10/02 05:10:56;;;;;;;0.00;0.00;;;15.30;99.90;;;;;;5023713;28;20033;-85
2023/10/02 05:16:11;;;;;;;0.00;0.00;;;15.20;99.90;;;;;;5024732;28;20137;-85
2023/10/02 05:18:42;;;;;;;0.55;0.55;;;15.20;99.90;;;;;;5036478;28;20069;-84
2023/10/02 05:21:09;;;;;;;0.00;0.00;;;15.10;99.90;;;;;;5023130;28;20037;-83
2023/10/02 05:23:36;;;;;;;0.00;0.00;;;15.20;99.90;;;;;;5023967;28;20029;-78
2023/10/02 05:26:29;;;;;;;0.00;0.00;;;15.10;99.90;;;;;;5019576;28;20103;-77
2023/10/02 05:28:53;;;;;;;0.00;0.00;;;15.10;99.90;;;;;;5021122;28;20132;-80
2023/10/02 05:31:21;;;;;;;0.00;0.00;;;15.20;99.90;;;;;;5022163;28;20049;-79
2023/10/02 05:33:48;;;;;;;0.00;0.00;;;15.30;99.90;;;;;;5018342;28;20056;-79
2023/10/02 05:36:19;;;;;;;0.00;0.00;;;15.20;99.90;;;;;;5022882;28;20021;-76
2023/10/02 05:39:16;;;;;;;0.00;0.00;;;15.20;99.90;;;;;;5021922;28;20042;-76
2023/10/02 05:41:46;;;;;;;0.00;0.00;;;15.20;99.90;;;;;;5013620;28;20033;-78
2023/10/02 05:44:23;;;;;;;0.00;0.00;;;15.20;99.90;;;;;;5015299;28;20037;-78
2023/10/02 05:46:55;;;;;;;0.10;0.10;;;15.20;99.90;;;;;;5025233;28;20834;-77
2023/10/02 05:49:23;;;;;;;0.00;0.00;;;15.30;99.90;;;;;;5019523;28;20026;-79
2023/10/02 05:51:55;;;;;;;0.10;0.10;;;15.30;99.90;;;;;;5022652;28;20034;-78
2023/10/02 05:54:29;;;;;;;0.03;0.03;;;15.20;99.90;;;;;;5020267;28;20740;-84
2023/10/02 05:57:12;;;;;;;0.00;0.00;;;15.30;99.90;;;;;;5021003;28;20021;-87
2023/10/02 05:59:45;;;;;;;0.10;0.10;;;15.30;99.70;;;;;;5020835;28;20033;-87
2023/10/02 06:02:23;;;;;;;1.45;1.35;;;15.20;99.90;;;;;;5016278;28;20034;-89
2023/10/02 06:04:53;;;;;;;0.00;0.00;;;15.20;99.90;;;;;;5021519;28;20101;-87
2023/10/02 06:10:18;;;;;;;0.00;0.00;;;15.60;99.20;;;;;;5010844;28;20057;-88
2023/10/02 06:12:45;;;;;;;0.00;0.00;;;15.90;98.50;;;;;;5007121;28;20038;-90
2023/10/02 06:18:07;;;;;;;0.00;0.00;;;16.30;97.40;;;;;;5008508;28;20057;-87
2023/10/02 06:20:33;;;;;;;0.00;0.00;;;16.40;97.20;;;;;;5012375;28;20037;-89
2023/10/02 06:23:19;;;;;;;0.00;0.00;;;16.40;97.30;;;;;;5024032;28;20024;-84
2023/10/02 06:25:46;;;;;;;0.00;0.00;;;16.60;96.60;;;;;;5020231;28;20172;-83
2023/10/02 06:28:27;;;;;;;5.43;1.10;;;16.90;95.90;;;;;;5020167;28;20045;-84
2023/10/02 06:30:54;;;;;;;0.00;0.00;;;17.10;95.50;;;;;;5009805;28;20048;-83
2023/10/02 06:33:23;;;;;;;0.00;0.00;;;17.40;94.60;;;;;;5012354;28;20029;-84
2023/10/02 06:36:00;;;;;;;0.00;0.00;;;17.60;94.50;;;;;;5020127;28;20045;-83
2023/10/02 06:38:32;;;;;;;0.00;0.00;;;17.80;93.60;;;;;;5021292;28;20030;-85
2023/10/02 06:40:59;;;;;;;0.00;0.00;;;18.20;92.50;;;;;;5022650;28;20795;-85
2023/10/02 06:43:31;;;;;;;0.00;0.00;;;18.70;91.10;;;;;;5022832;28;20105;-85
2023/10/02 06:46:13;;;;;;;0.00;0.00;;;19.10;90.30;;;;;;5016411;28;20034;-84
2023/10/02 06:48:45;;;;;;;0.00;0.00;;;19.50;89.50;;;;;;5021087;28;20630;-84
2023/10/02 06:51:14;;;;;;;0.00;0.00;;;19.70;88.00;;;;;;5021777;28;20102;-84
2023/10/02 06:53:41;;;;;;;0.00;0.00;;;20.20;87.00;;;;;;5020207;28;20682;-85
2023/10/02 06:56:13;;;;;;;0.00;0.00;;;20.30;85.70;;;;;;5024629;28;20515;-85
2023/10/02 06:58:50;;;;;;;0.00;0.00;;;20.50;84.90;;;;;;5026661;28;20030;-84
2023/10/02 07:01:19;;;;;;;0.00;0.00;;;20.70;83.50;;;;;;5026747;28;20059;-84
2023/10/02 07:03:51;;;;;;;0.00;0.00;;;21.10;83.20;;;;;;5026134;28;20021;-85
2023/10/02 07:06:23;;;;;;;0.00;0.00;;;21.00;82.00;;;;;;5025663;28;20030;-83
2023/10/02 07:09:10;;;;;;;0.00;0.00;;;21.40;81.30;;;;;;5026041;28;20110;-85
2023/10/02 07:11:36;;;;;;;0.00;0.00;;;21.70;81.10;;;;;;5025949;28;20381;-85
2023/10/02 07:14:04;;;;;;;0.00;0.00;;;21.50;80.80;;;;;;5026336;28;20029;-84
2023/10/02 07:16:32;;;;;;;0.00;0.00;;;21.60;80.10;;;;;;5025955;28;20036;-86
2023/10/02 07:18:58;;;;;;;0.00;0.00;;;21.60;79.30;;;;;;5026342;28;20116;-85
2023/10/02 07:21:26;;;;;;;0.00;0.00;;;22.10;79.00;;;;;;5025744;28;20068;-83
2023/10/02 07:23:52;;;;;;;0.00;0.00;;;22.50;77.80;;;;;;5025677;28;20806;-85
2023/10/02 07:26:19;;;;;;;0.00;0.00;;;22.40;76.20;;;;;;5025482;28;20029;-85
2023/10/02 07:28:51;;;;;;;0.00;0.00;;;22.50;76.20;;;;;;5025290;28;20036;-85
2023/10/02 07:31:18;;;;;;;0.35;0.35;;;22.50;75.70;;;;;;5025337;28;20041;-83
2023/10/02 07:33:44;;;;;;;0.00;0.00;;;22.80;75.50;;;;;;5026235;28;20029;-86
2023/10/02 07:36:14;;;;;;;0.00;0.00;;;23.20;76.10;;;;;;5025794;28;20083;-85
2023/10/02 07:38:42;;;;;;;0.00;0.00;;;23.00;74.60;;;;;;5026363;28;20014;-83
2023/10/02 07:41:28;;;;;;;0.00;0.00;;;23.00;74.00;;;;;;5026021;28;20022;-83
2023/10/02 07:44:06;;;;;;;0.00;0.00;;;23.30;72.80;;;;;;5025577;28;20026;-86
2023/10/02 07:46:33;;;;;;;0.00;0.00;;;23.20;73.30;;;;;;5025798;28;20032;-84
2023/10/02 07:49:00;;;;;;;0.00;0.00;;;23.50;71.80;;;;;;5025852;28;20073;-84
2023/10/02 07:51:36;;;;;;;0.00;0.00;;;24.00;71.70;;;;;;5025109;28;20041;-85
2023/10/02 07:54:06;;;;;;;0.00;0.00;;;24.20;71.10;;;;;;5025053;28;20489;-84
2023/10/02 07:56:33;;;;;;;0.00;0.00;;;24.80;69.60;;;;;;5025190;28;20417;-85
2023/10/02 07:59:01;;;;;;;0.00;0.00;;;25.00;69.50;;;;;;5025460;28;20025;-86
2023/10/02 08:01:27;;;;;;;0.00;0.00;;;24.90;68.50;;;;;;5025510;28;20082;-82
2023/10/02 08:03:55;;;;;;;0.00;0.00;;;25.20;67.40;;;;;;5018675;28;20079;-86
2023/10/02 08:11:49;;;;;;;0.00;0.00;;;26.20;67.00;;;;;;5024852;28;20107;-85
2023/10/02 08:17:27;;;;;;;0.00;0.00;;;25.70;66.80;;;;;;5011948;28;20037;-86
2023/10/02 08:19:59;;;;;;;0.00;0.00;;;26.60;65.70;;;;;;5024871;28;20091;-83
2023/10/02 08:22:44;;;;;;;0.00;0.00;;;26.70;65.30;;;;;;5024911;28;20033;-84
2023/10/02 08:25:13;;;;;;;0.00;0.00;;;26.80;63.50;;;;;;5023271;28;20073;-85
2023/10/02 08:27:55;;;;;;;0.00;0.00;;;27.00;63.10;;;;;;5025550;28;20025;-85
2023/10/02 08:30:29;;;;;;;0.00;0.00;;;26.80;63.40;;;;;;5015211;28;20029;-85
2023/10/02 08:33:06;;;;;;;0.00;0.00;;;27.00;63.50;;;;;;5023619;28;20029;-84
2023/10/02 08:35:40;;;;;;;0.00;0.00;;;27.20;61.10;;;;;;5024699;28;20037;-86
2023/10/02 08:38:21;;;;;;;1.10;0.75;;;27.20;60.70;;;;;;5022149;28;20021;-84
2023/10/02 08:40:57;;;;;;;7.97;0.65;;;27.10;59.90;;;;;;5024647;28;20619;-85
2023/10/02 08:43:32;;;;;;;0.90;0.90;;;27.40;59.20;;;;;;5024681;28;20021;-86
2023/10/02 08:45:58;;;;;;;0.00;0.00;;;27.90;59.60;;;;;;5024350;28;20037;-86
2023/10/02 08:48:25;;;;;;;0.00;0.00;;;28.30;60.10;;;;;;5022659;28;20492;-85
2023/10/02 08:50:58;;;;;;;0.22;0.22;;;28.90;58.20;;;;;;5022249;28;20041;-85
2023/10/02 08:53:25;;;;;;;0.00;0.00;;;29.10;57.90;;;;;;5023931;28;20033;-84
2023/10/02 08:56:00;;;;;;;0.00;0.00;;;29.40;57.10;;;;;;5023494;28;20600;-86
2023/10/02 08:58:27;;;;;;;0.00;0.00;;;28.90;57.90;;;;;;5019590;28;20029;-86
2023/10/02 09:06:41;;;;;;;0.00;0.00;;;29.50;58.40;;;;;;5023988;28;20040;-85
2023/10/02 09:11:41;;;;;;;0.00;0.00;;;29.80;56.90;;;;;;5037298;28;20094;-85
2023/10/02 09:14:21;;;;;;;0.00;0.00;;;29.80;58.00;;;;;;5023183;28;20694;-86
2023/10/02 09:20:07;;;;;;;0.00;0.00;;;30.10;56.80;;;;;;5023665;28;20074;-86
2023/10/02 09:22:38;;;;;;;0.00;0.00;;;29.90;57.60;;;;;;5016474;28;20112;-85
2023/10/02 09:25:26;;;;;;;0.00;0.00;;;30.10;58.00;;;;;;5023418;28;20240;-83
2023/10/02 09:28:04;;;;;;;0.00;0.00;;;29.80;56.50;;;;;;5013881;28;20053;-85
2023/10/02 09:33:05;;;;;;;0.00;0.00;;;29.90;55.60;;;;;;5022828;28;20025;-83
2023/10/02 09:35:39;;;;;;;0.03;0.03;;;29.70;56.00;;;;;;5023421;28;20029;-85
2023/10/02 09:38:06;;;;;;;0.00;0.00;;;30.00;57.80;;;;;;5019636;28;20025;-86
2023/10/02 09:43:30;;;;;;;0.00;0.00;;;28.70;56.40;;;;;;5023735;28;20036;-84
2023/10/02 09:46:00;;;;;;;0.00;0.00;;;27.90;56.80;;;;;;5022796;28;20140;-86
2023/10/02 09:51:25;;;;;;;0.00;0.00;;;27.70;60.10;;;;;;5019115;28;20049;-85
2023/10/02 09:54:04;;;;;;;0.00;0.00;;;27.70;58.70;;;;;;5023192;28;20030;-84
2023/10/02 09:57:05;;;;;;;0.00;0.00;;;27.50;56.30;;;;;;5022797;28;20029;-85
2023/10/02 09:59:46;;;;;;;0.00;0.00;;;27.50;54.40;;;;;;5019776;28;20594;-86
2023/10/02 10:05:39;;;;;;;0.00;0.00;;;27.30;55.30;;;;;;5022521;28;20136;-86
2023/10/02 10:07:52;;;;;;;0.00;0.00;;;27.30;54.50;;;;;;5020123;28;20029;-85
2023/10/02 10:10:49;;;;;;;0.00;0.00;;;27.30;53.50;;;;;;5022827;28;20133;-85
2023/10/02 10:13:24;;;;;;;0.00;0.00;;;27.40;54.70;;;;;;5022822;28;20057;-86
2023/10/02 10:15:51;;;;;;;0.28;0.20;;;27.40;54.50;;;;;;5022185;28;20038;-85
2023/10/02 10:18:17;;;;;;;0.00;0.00;;;27.50;52.10;;;;;;5022382;28;20033;-85
2023/10/02 10:20:45;;;;;;;0.00;0.00;;;27.40;52.50;;;;;;5022356;28;20061;-85
2023/10/02 10:23:39;;;;;;;0.00;0.00;;;27.20;51.70;;;;;;5022712;28;20539;-85
2023/10/02 10:26:25;;;;;;;0.00;0.00;;;27.40;52.10;;;;;;5022383;28;20088;-86
2023/10/02 10:28:53;;;;;;;0.00;0.00;;;27.30;52.40;;;;;;5013914;28;20095;-85
2023/10/02 10:31:29;;;;;;;0.00;0.00;;;27.40;53.00;;;;;;5021448;28;20033;-84
2023/10/02 10:33:56;;;;;;;0.10;0.10;;;27.40;51.80;;;;;;5022870;28;20021;-86
2023/10/02 10:36:39;;;;;;;0.00;0.00;;;27.40;51.60;;;;;;5022680;28;20894;-85
2023/10/02 10:40:40;;;;;;;0.00;0.00;;;27.40;50.10;;;;;;5023047;28;20021;-85
2023/10/02 10:42:59;;;;;;;0.00;0.00;;;27.30;51.90;;;;;;5018848;28;20029;-84
2023/10/02 10:45:30;;;;;;;0.00;0.00;;;27.30;51.70;;;;;;5019216;28;20029;-85
2023/10/02 10:47:55;;;;;;;0.10;0.10;;;27.40;52.30;;;;;;5029462;28;20112;-85
2023/10/02 10:50:30;;;;;;;0.00;0.00;;;27.40;54.30;;;;;;5022191;28;20096;-85
2023/10/02 10:53:02;;;;;;;0.00;0.00;;;27.40;51.60;;;;;;5022304;28;20443;-84
2023/10/02 10:55:33;;;;;;;0.00;0.00;;;27.30;49.50;;;;;;5021877;28;20028;-85
2023/10/02 10:58:00;;;;;;;0.00;0.00;;;27.20;52.00;;;;;;5022599;28;20124;-85
2023/10/02 11:00:26;;;;;;;;;;;27.40;52.40;;;;;;5022646;28;20025;-86
2023/10/02 11:02:57;;;;;;;0.00;0.00;;;27.50;51.90;;;;;;5022499;28;19958;-85
2023/10/02 11:05:23;;;;;;;0.00;0.00;;;27.40;51.30;;;;;;5021819;28;21271;-86
2023/10/02 11:07:49;;;;;;;0.00;0.00;;;27.30;49.20;;;;;;5021997;28;20100;-85
2023/10/02 11:10:23;;;;;;;;;;;27.40;50.70;;;;;;5022357;28;20497;-84
2023/10/02 11:12:59;;;;;;;0.00;0.00;;;27.30;50.20;;;;;;5022343;28;19917;-86
2023/10/02 11:15:50;;;;;;;0.00;0.00;;;27.40;49.80;;;;;;5021899;28;20025;-86
2023/10/02 11:18:21;;;;;;;0.50;0.50;;;27.30;48.50;;;;;;5022241;28;20109;-86
2023/10/02 11:20:51;;;;;;;0.00;0.00;;;27.40;49.90;;;;;;5021948;28;20030;-86
2023/10/02 11:23:40;;;;;;;0.00;0.00;;;27.40;50.10;;;;;;5022162;28;20029;-86
2023/10/02 11:26:13;;;;;;;0.00;0.00;;;27.30;49.00;;;;;;5021554;28;20046;-87
2023/10/02 11:28:41;;;;;;;0.00;0.00;;;27.20;48.90;;;;;;5022143;28;20136;-86
2023/10/02 11:31:36;;;;;;;0.00;0.00;;;27.00;49.30;;;;;;5020767;28;20092;-87
2023/10/02 11:34:06;;;;;;;0.00;0.00;;;26.90;49.40;;;;;;5021272;28;20076;-86
2023/10/02 11:36:38;;;;;;;0.00;0.00;;;27.00;48.60;;;;;;5020472;28;20683;-86
2023/10/02 11:39:09;;;;;;;0.00;0.00;;;26.90;48.60;;;;;;5021764;28;20031;-86
2023/10/02 11:41:38;;;;;;;0.00;0.00;;;26.90;49.40;;;;;;5025222;28;20029;-85
2023/10/02 11:44:06;;;;;;;0.00;0.00;;;26.90;49.90;;;;;;5025429;28;20036;-86
2023/10/02 11:46:32;;;;;;;0.00;0.00;;;26.80;50.00;;;;;;5025695;28;20049;-86
2023/10/02 11:48:58;;;;;;;0.20;0.20;;;26.90;50.60;;;;;;5025255;28;20100;-86
2023/10/02 11:51:30;;;;;;;0.00;0.00;;;26.90;50.80;;;;;;5025655;28;20148;-85
2023/10/02 11:54:08;;;;;;;0.00;0.00;;;26.90;50.90;;;;;;5025462;28;20053;-86
2023/10/02 11:56:34;;;;;;;0.00;0.00;;;26.80;48.80;;;;;;5025328;28;20714;-87
2023/10/02 11:59:02;;;;;;;0.00;0.00;;;26.80;48.20;;;;;;5025561;28;20026;-85
2023/10/02 12:01:28;;;;;;;0.00;0.00;;;26.70;49.40;;;;;;5025156;28;20575;-85
2023/10/02 12:03:57;;;;;;;0.00;0.00;;;26.50;49.90;;;;;;5024087;28;20084;-86
2023/10/02 12:06:28;;;;;;;0.00;0.00;;;26.70;49.10;;;;;;5023568;28;20049;-85
2023/10/02 12:08:56;;;;;;;0.00;0.00;;;26.70;50.00;;;;;;5025395;28;20052;-86
2023/10/02 12:11:24;;;;;;;0.73;0.73;;;26.60;50.70;;;;;;5024402;28;20038;-85
2023/10/02 12:13:51;;;;;;;0.00;0.00;;;26.70;51.50;;;;;;5024624;28;20026;-85
2023/10/02 12:16:17;;;;;;;0.00;0.00;;;26.80;49.70;;;;;;5024959;28;20795;-87
2023/10/02 12:18:43;;;;;;;;;;;26.70;50.80;;;;;;5025680;28;20021;-86
2023/10/02 12:21:11;;;;;;;;;;;26.80;48.80;;;;;;5025642;28;20197;-86
2023/10/02 12:23:40;;;;;;;0.00;0.00;;;26.60;49.80;;;;;;5025268;28;19909;-85
2023/10/02 12:26:12;;;;;;;0.00;0.00;;;26.70;51.60;;;;;;5024184;28;20122;-85
2023/10/02 12:28:38;;;;;;;0.00;0.00;;;26.70;52.30;;;;;;5025205;28;20061;-86
2023/10/02 12:31:13;;;;;;;0.00;0.00;;;26.50;50.90;;;;;;5024587;28;20049;-85
2023/10/02 12:33:43;;;;;;;0.00;0.00;;;26.50;50.20;;;;;;5024690;28;20026;-86
2023/10/02 12:36:13;;;;;;;0.00;0.00;;;26.50;50.70;;;;;;5022582;28;20083;-84
2023/10/02 12:38:40;;;;;;;0.00;0.00;;;26.90;50.00;;;;;;5024381;28;20021;-85
2023/10/02 12:41:22;;;;;;;0.00;0.00;;;26.70;51.00;;;;;;5024088;28;20060;-84
2023/10/02 12:43:55;;;;;;;0.00;0.00;;;26.70;50.10;;;;;;5024446;28;20336;-86
2023/10/02 12:46:26;;;;;;;0.00;0.00;;;26.90;50.90;;;;;;5024072;28;20034;-86
2023/10/02 12:48:52;;;;;;;0.00;0.00;;;26.60;51.60;;;;;;5024335;28;20041;-86
2023/10/02 12:51:19;;;;;;;;;;;26.60;50.20;;;;;;5024260;28;20148;-85
2023/10/02 12:53:45;;;;;;;10.15;8.27;;;26.70;49.20;;;;;;5023765;28;20307;-85
2023/10/02 12:56:15;;;;;;;0.00;0.00;;;26.80;49.30;;;;;;5022786;28;20563;-84
2023/10/02 12:58:41;;;;;;;0.00;0.00;;;27.00;49.60;;;;;;5024242;28;20759;-86
2023/10/02 13:01:13;;;;;;;0.00;0.00;;;26.90;48.60;;;;;;5024553;28;20120;-86
2023/10/02 13:03:40;;;;;;;0.00;0.00;;;26.80;48.90;;;;;;5024175;28;20694;-85
2023/10/02 13:06:06;;;;;;;0.00;0.00;;;26.70;49.40;;;;;;5023952;28;20029;-85
2023/10/02 13:08:32;;;;;;;0.15;0.15;;;26.60;49.80;;;;;;5024588;28;20522;-86
2023/10/02 13:10:58;;;;;;;0.00;0.00;;;26.80;49.90;;;;;;5024108;28;20123;-85
2023/10/02 13:13:24;;;;;;;0.00;0.00;;;26.70;50.20;;;;;;5023994;28;20101;-83
2023/10/02 13:15:51;;;;;;;0.00;0.00;;;26.70;51.50;;;;;;5024174;28;20128;-85
2023/10/02 13:18:17;;;;;;;0.10;0.10;;;26.90;49.90;;;;;;5024074;28;20735;-86
2023/10/02 13:20:43;;;;;;;0.10;0.10;;;27.00;49.20;;;;;;5023799;28;20025;-88
2023/10/02 13:23:12;;;;;;;3.92;3.60;;;26.90;49.00;;;;;;5024080;28;20107;-87
2023/10/02 13:25:42;;;;;;;0.00;0.00;;;26.90;49.30;;;;;;5016082;28;20053;-85
2023/10/02 13:28:11;;;;;;;0.00;0.00;;;26.90;49.00;;;;;;5024372;28;20030;-86
2023/10/02 13:30:40;;;;;;;0.00;0.00;;;26.90;50.20;;;;;;5024337;28;20021;-87
2023/10/02 13:33:06;;;;;;;0.00;0.00;;;27.00;49.00;;;;;;5023022;28;20026;-84
2023/10/02 13:35:36;;;;;;;0.13;0.13;;;26.80;49.60;;;;;;5022487;28;20033;-87
2023/10/02 13:38:02;;;;;;;0.00;0.00;;;26.60;50.70;;;;;;5022937;28;20063;-86
2023/10/02 13:40:36;;;;;;;0.00;0.00;;;26.70;49.80;;;;;;5023776;28;20032;-86
2023/10/02 13:43:03;;;;;;;0.00;0.00;;;26.60;49.70;;;;;;5023653;28;20024;-86
2023/10/02 13:45:29;;;;;;;0.00;0.00;;;26.90;49.00;;;;;;5023300;28;20103;-88
2023/10/02 13:47:56;;;;;;;0.00;0.00;;;26.80;49.80;;;;;;5024725;28;20030;-85
2023/10/02 13:50:22;;;;;;;0.00;0.00;;;26.80;50.40;;;;;;5023094;28;20030;-86
2023/10/02 13:52:53;;;;;;;0.00;0.00;;;26.70;49.70;;;;;;5023053;28;20064;-86
2023/10/02 13:55:27;;;;;;;0.00;0.00;;;26.80;49.70;;;;;;5022929;28;20591;-84
2023/10/02 13:57:54;;;;;;;0.00;0.00;;;26.80;49.50;;;;;;5023535;28;20025;-85
2023/10/02 14:00:22;;;;;;;0.00;0.00;;;26.70;49.10;;;;;;5023232;28;20029;-86
2023/10/02 14:02:51;;;;;;;32.65;4.10;;;26.90;49.40;;;;;;5022590;28;20133;-86
2023/10/02 14:05:18;;;;;;;0.00;0.00;;;27.00;47.60;;;;;;5020938;28;20029;-86
2023/10/02 14:07:48;;;;;;;0.00;0.00;;;27.10;48.50;;;;;;5022957;28;20087;-86
2023/10/02 14:10:17;;;;;;;0.40;0.40;;;27.30;47.60;;;;;;5022717;28;20060;-88
2023/10/02 14:12:44;;;;;;;0.00;0.00;;;27.20;48.40;;;;;;5022552;28;20037;-86
2023/10/02 14:15:19;;;;;;;;;;;27.40;47.60;;;;;;5023149;28;20107;-87